<?xml version="1.0" encoding="UTF-8" standalone="no" ?>
<gpx xmlns="http://www.topografix.com/GPX/1/1" xmlns:xsi="http://www.w3.org/2001/XMLSchema-instance" xsi:schemaLocation="http://www.topografix.com/GPX/1/1 http://www.topografix.com/GPX/1/1/gpx.xsd" version="1.1" creator="VisuGPX - https://www.visugpx.com">
  <metadata>
    <name>Randonnée du 05/08/2021 à 10:09</name>
  </metadata>
  <trk>
    <name><![CDATA[Randonnée du 05/08/2021 à 10:09]]></name>
    <trkseg>
      <trkpt lat="44.88045" lon="5.68901">
        <ele>504</ele>
        <time>2021-08-05T10:09:19+02:00</time>
      </trkpt>
      <trkpt lat="44.88041" lon="5.68899">
        <ele>545</ele>
        <time>2021-08-05T10:09:27+02:00</time>
      </trkpt>
      <trkpt lat="44.88034" lon="5.68931">
        <ele>539</ele>
        <time>2021-08-05T10:11:59+02:00</time>
      </trkpt>
      <trkpt lat="44.88052" lon="5.68951">
        <ele>549</ele>
        <time>2021-08-05T10:13:41+02:00</time>
      </trkpt>
      <trkpt lat="44.88059" lon="5.68981">
        <ele>553</ele>
        <time>2021-08-05T10:14:20+02:00</time>
      </trkpt>
      <trkpt lat="44.88048" lon="5.6899">
        <ele>494</ele>
        <time>2021-08-08T06:54:58+02:00</time>
      </trkpt>
      <trkpt lat="44.88037" lon="5.68993">
        <ele>551</ele>
        <time>2021-08-05T10:14:50+02:00</time>
      </trkpt>
      <trkpt lat="44.88017" lon="5.68998">
        <ele>493</ele>
        <time>2021-08-05T10:15:10+02:00</time>
      </trkpt>
      <trkpt lat="44.87993" lon="5.69004">
        <ele>551</ele>
        <time>2021-08-05T10:15:29+02:00</time>
      </trkpt>
      <trkpt lat="44.8797" lon="5.69012">
        <ele>553</ele>
        <time>2021-08-05T10:15:50+02:00</time>
      </trkpt>
      <trkpt lat="44.8795" lon="5.69026">
        <ele>552</ele>
        <time>2021-08-05T10:16:10+02:00</time>
      </trkpt>
      <trkpt lat="44.8793" lon="5.69044">
        <ele>552</ele>
        <time>2021-08-05T10:16:31+02:00</time>
      </trkpt>
      <trkpt lat="44.87908" lon="5.69056">
        <ele>549</ele>
        <time>2021-08-05T10:16:52+02:00</time>
      </trkpt>
      <trkpt lat="44.87887" lon="5.69068">
        <ele>552</ele>
        <time>2021-08-05T10:17:15+02:00</time>
      </trkpt>
      <trkpt lat="44.87867" lon="5.69085">
        <ele>551</ele>
        <time>2021-08-05T10:17:39+02:00</time>
      </trkpt>
      <trkpt lat="44.87844" lon="5.69093">
        <ele>553</ele>
        <time>2021-08-05T10:17:59+02:00</time>
      </trkpt>
      <trkpt lat="44.87824" lon="5.69109">
        <ele>549</ele>
        <time>2021-08-05T10:18:25+02:00</time>
      </trkpt>
      <trkpt lat="44.87804" lon="5.69125">
        <ele>551</ele>
        <time>2021-08-05T10:18:49+02:00</time>
      </trkpt>
      <trkpt lat="44.87781" lon="5.69132">
        <ele>553</ele>
        <time>2021-08-05T10:19:09+02:00</time>
      </trkpt>
      <trkpt lat="44.8776" lon="5.69147">
        <ele>546</ele>
        <time>2021-08-05T10:19:32+02:00</time>
      </trkpt>
      <trkpt lat="44.87742" lon="5.69168">
        <ele>548</ele>
        <time>2021-08-05T10:19:54+02:00</time>
      </trkpt>
      <trkpt lat="44.87726" lon="5.6919">
        <ele>549</ele>
        <time>2021-08-05T10:20:17+02:00</time>
      </trkpt>
      <trkpt lat="44.87719" lon="5.69222">
        <ele>552</ele>
        <time>2021-08-05T10:20:39+02:00</time>
      </trkpt>
      <trkpt lat="44.87715" lon="5.69253">
        <ele>558</ele>
        <time>2021-08-05T10:21:01+02:00</time>
      </trkpt>
      <trkpt lat="44.87707" lon="5.69284">
        <ele>554</ele>
        <time>2021-08-05T10:21:22+02:00</time>
      </trkpt>
      <trkpt lat="44.877" lon="5.69314">
        <ele>551</ele>
        <time>2021-08-05T10:21:44+02:00</time>
      </trkpt>
      <trkpt lat="44.87697" lon="5.69346">
        <ele>485</ele>
        <time>2021-08-05T10:22:05+02:00</time>
      </trkpt>
      <trkpt lat="44.87689" lon="5.69375">
        <ele>553</ele>
        <time>2021-08-05T10:22:27+02:00</time>
      </trkpt>
      <trkpt lat="44.87695" lon="5.69407">
        <ele>550</ele>
        <time>2021-08-05T10:22:43+02:00</time>
      </trkpt>
      <trkpt lat="44.87704" lon="5.69436">
        <ele>548</ele>
        <time>2021-08-05T10:23:00+02:00</time>
      </trkpt>
      <trkpt lat="44.87717" lon="5.69463">
        <ele>550</ele>
        <time>2021-08-05T10:23:25+02:00</time>
      </trkpt>
      <trkpt lat="44.87733" lon="5.69487">
        <ele>553</ele>
        <time>2021-08-05T10:23:43+02:00</time>
      </trkpt>
      <trkpt lat="44.87742" lon="5.69517">
        <ele>561</ele>
        <time>2021-08-05T10:24:06+02:00</time>
      </trkpt>
      <trkpt lat="44.87739" lon="5.69531">
        <ele>496</ele>
        <time>2021-08-08T06:57:18+02:00</time>
      </trkpt>
      <trkpt lat="44.87727" lon="5.69542">
        <ele>560</ele>
        <time>2021-08-05T10:24:32+02:00</time>
      </trkpt>
      <trkpt lat="44.87704" lon="5.69543">
        <ele>561</ele>
        <time>2021-08-05T10:24:55+02:00</time>
      </trkpt>
      <trkpt lat="44.87681" lon="5.69543">
        <ele>560</ele>
        <time>2021-08-05T10:25:16+02:00</time>
      </trkpt>
      <trkpt lat="44.87659" lon="5.69537">
        <ele>557</ele>
        <time>2021-08-05T10:25:53+02:00</time>
      </trkpt>
      <trkpt lat="44.87636" lon="5.69539">
        <ele>555</ele>
        <time>2021-08-05T10:26:17+02:00</time>
      </trkpt>
      <trkpt lat="44.87626" lon="5.69569">
        <ele>547</ele>
        <time>2021-08-05T10:26:43+02:00</time>
      </trkpt>
      <trkpt lat="44.87609" lon="5.6959">
        <ele>549</ele>
        <time>2021-08-05T10:27:09+02:00</time>
      </trkpt>
      <trkpt lat="44.87595" lon="5.69617">
        <ele>549</ele>
        <time>2021-08-05T10:27:28+02:00</time>
      </trkpt>
      <trkpt lat="44.87586" lon="5.69646">
        <ele>552</ele>
        <time>2021-08-05T10:27:52+02:00</time>
      </trkpt>
      <trkpt lat="44.87584" lon="5.69678">
        <ele>553</ele>
        <time>2021-08-05T10:28:25+02:00</time>
      </trkpt>
      <trkpt lat="44.8757" lon="5.69706">
        <ele>492</ele>
        <time>2021-08-08T06:58:13+02:00</time>
      </trkpt>
      <trkpt lat="44.87557" lon="5.69688">
        <ele>487</ele>
        <time>2021-08-05T10:29:41+02:00</time>
      </trkpt>
      <trkpt lat="44.87537" lon="5.69674">
        <ele>548</ele>
        <time>2021-08-05T10:29:58+02:00</time>
      </trkpt>
      <trkpt lat="44.87514" lon="5.69682">
        <ele>492</ele>
        <time>2021-08-05T10:30:24+02:00</time>
      </trkpt>
      <trkpt lat="44.8749" lon="5.69682">
        <ele>542</ele>
        <time>2021-08-05T10:30:42+02:00</time>
      </trkpt>
      <trkpt lat="44.87469" lon="5.69695">
        <ele>546</ele>
        <time>2021-08-05T10:31:18+02:00</time>
      </trkpt>
      <trkpt lat="44.8745" lon="5.69711">
        <ele>547</ele>
        <time>2021-08-05T10:31:41+02:00</time>
      </trkpt>
      <trkpt lat="44.87434" lon="5.69735">
        <ele>552</ele>
        <time>2021-08-05T10:32:47+02:00</time>
      </trkpt>
      <trkpt lat="44.87425" lon="5.69762">
        <ele>498</ele>
        <time>2021-08-05T10:33:09+02:00</time>
      </trkpt>
      <trkpt lat="44.87418" lon="5.69788">
        <ele>504</ele>
        <time>2021-08-05T10:33:33+02:00</time>
      </trkpt>
      <trkpt lat="44.87414" lon="5.69809">
        <ele>507</ele>
        <time>2021-08-08T06:59:03+02:00</time>
      </trkpt>
      <trkpt lat="44.8743" lon="5.69804">
        <ele>564</ele>
        <time>2021-08-05T10:34:12+02:00</time>
      </trkpt>
      <trkpt lat="44.87458" lon="5.6979">
        <ele>513</ele>
        <time>2021-08-05T10:34:42+02:00</time>
      </trkpt>
      <trkpt lat="44.87462" lon="5.69798">
        <ele>517</ele>
        <time>2021-08-08T06:59:18+02:00</time>
      </trkpt>
      <trkpt lat="44.87456" lon="5.69805">
        <ele>516</ele>
        <time>2021-08-08T06:59:23+02:00</time>
      </trkpt>
      <trkpt lat="44.87447" lon="5.69827">
        <ele>569</ele>
        <time>2021-08-05T10:35:37+02:00</time>
      </trkpt>
      <trkpt lat="44.87436" lon="5.69855">
        <ele>574</ele>
        <time>2021-08-05T10:36:00+02:00</time>
      </trkpt>
      <trkpt lat="44.87425" lon="5.69881">
        <ele>524</ele>
        <time>2021-08-05T10:36:36+02:00</time>
      </trkpt>
      <trkpt lat="44.87406" lon="5.69904">
        <ele>581</ele>
        <time>2021-08-05T10:37:02+02:00</time>
      </trkpt>
      <trkpt lat="44.87397" lon="5.69935">
        <ele>527</ele>
        <time>2021-08-05T10:37:26+02:00</time>
      </trkpt>
      <trkpt lat="44.87384" lon="5.69962">
        <ele>530</ele>
        <time>2021-08-05T10:37:49+02:00</time>
      </trkpt>
      <trkpt lat="44.87367" lon="5.69981">
        <ele>593</ele>
        <time>2021-08-05T10:38:15+02:00</time>
      </trkpt>
      <trkpt lat="44.87349" lon="5.7">
        <ele>592</ele>
        <time>2021-08-05T10:42:55+02:00</time>
      </trkpt>
      <trkpt lat="44.87327" lon="5.70009">
        <ele>592</ele>
        <time>2021-08-05T10:43:35+02:00</time>
      </trkpt>
      <trkpt lat="44.87305" lon="5.70012">
        <ele>594</ele>
        <time>2021-08-05T10:43:58+02:00</time>
      </trkpt>
      <trkpt lat="44.87282" lon="5.70022">
        <ele>595</ele>
        <time>2021-08-05T10:44:24+02:00</time>
      </trkpt>
      <trkpt lat="44.8726" lon="5.70026">
        <ele>595</ele>
        <time>2021-08-05T10:45:23+02:00</time>
      </trkpt>
      <trkpt lat="44.87236" lon="5.70032">
        <ele>597</ele>
        <time>2021-08-05T10:45:44+02:00</time>
      </trkpt>
      <trkpt lat="44.87214" lon="5.70039">
        <ele>604</ele>
        <time>2021-08-05T10:46:07+02:00</time>
      </trkpt>
      <trkpt lat="44.87196" lon="5.70059">
        <ele>603</ele>
        <time>2021-08-05T10:46:29+02:00</time>
      </trkpt>
      <trkpt lat="44.87207" lon="5.70088">
        <ele>605</ele>
        <time>2021-08-05T10:47:12+02:00</time>
      </trkpt>
      <trkpt lat="44.8722" lon="5.70114">
        <ele>607</ele>
        <time>2021-08-05T10:47:31+02:00</time>
      </trkpt>
      <trkpt lat="44.8723" lon="5.70143">
        <ele>605</ele>
        <time>2021-08-05T10:47:51+02:00</time>
      </trkpt>
      <trkpt lat="44.8724" lon="5.70172">
        <ele>604</ele>
        <time>2021-08-05T10:48:12+02:00</time>
      </trkpt>
      <trkpt lat="44.87238" lon="5.70204">
        <ele>603</ele>
        <time>2021-08-05T10:48:33+02:00</time>
      </trkpt>
      <trkpt lat="44.87239" lon="5.70238">
        <ele>603</ele>
        <time>2021-08-05T10:48:54+02:00</time>
      </trkpt>
      <trkpt lat="44.87247" lon="5.70268">
        <ele>608</ele>
        <time>2021-08-05T10:49:15+02:00</time>
      </trkpt>
      <trkpt lat="44.87259" lon="5.70295">
        <ele>612</ele>
        <time>2021-08-05T10:49:37+02:00</time>
      </trkpt>
      <trkpt lat="44.87274" lon="5.70321">
        <ele>611</ele>
        <time>2021-08-05T10:49:57+02:00</time>
      </trkpt>
      <trkpt lat="44.87288" lon="5.70346">
        <ele>612</ele>
        <time>2021-08-05T10:50:18+02:00</time>
      </trkpt>
      <trkpt lat="44.87297" lon="5.70375">
        <ele>610</ele>
        <time>2021-08-05T10:50:41+02:00</time>
      </trkpt>
      <trkpt lat="44.87308" lon="5.70404">
        <ele>611</ele>
        <time>2021-08-05T10:51:04+02:00</time>
      </trkpt>
      <trkpt lat="44.87317" lon="5.70418">
        <ele>552</ele>
        <time>2021-08-08T07:01:43+02:00</time>
      </trkpt>
      <trkpt lat="44.87304" lon="5.70418">
        <ele>550</ele>
        <time>2021-08-08T07:01:48+02:00</time>
      </trkpt>
      <trkpt lat="44.87289" lon="5.7042">
        <ele>609</ele>
        <time>2021-08-05T10:55:03+02:00</time>
      </trkpt>
      <trkpt lat="44.87266" lon="5.70422">
        <ele>605</ele>
        <time>2021-08-05T10:55:25+02:00</time>
      </trkpt>
      <trkpt lat="44.87244" lon="5.70432">
        <ele>604</ele>
        <time>2021-08-05T10:55:44+02:00</time>
      </trkpt>
      <trkpt lat="44.87224" lon="5.70447">
        <ele>600</ele>
        <time>2021-08-05T10:56:09+02:00</time>
      </trkpt>
      <trkpt lat="44.87215" lon="5.70477">
        <ele>596</ele>
        <time>2021-08-05T10:56:29+02:00</time>
      </trkpt>
      <trkpt lat="44.87227" lon="5.70505">
        <ele>589</ele>
        <time>2021-08-05T10:56:50+02:00</time>
      </trkpt>
      <trkpt lat="44.87226" lon="5.70522">
        <ele>534</ele>
        <time>2021-08-08T07:02:23+02:00</time>
      </trkpt>
      <trkpt lat="44.87218" lon="5.70534">
        <ele>590</ele>
        <time>2021-08-05T10:57:14+02:00</time>
      </trkpt>
      <trkpt lat="44.87209" lon="5.70565">
        <ele>591</ele>
        <time>2021-08-05T10:57:34+02:00</time>
      </trkpt>
      <trkpt lat="44.87198" lon="5.70593">
        <ele>592</ele>
        <time>2021-08-05T10:57:54+02:00</time>
      </trkpt>
      <trkpt lat="44.87184" lon="5.70619">
        <ele>594</ele>
        <time>2021-08-05T10:58:15+02:00</time>
      </trkpt>
      <trkpt lat="44.87169" lon="5.70642">
        <ele>590</ele>
        <time>2021-08-05T10:58:37+02:00</time>
      </trkpt>
      <trkpt lat="44.87151" lon="5.70662">
        <ele>585</ele>
        <time>2021-08-05T10:59:00+02:00</time>
      </trkpt>
      <trkpt lat="44.87136" lon="5.70688">
        <ele>580</ele>
        <time>2021-08-05T10:59:22+02:00</time>
      </trkpt>
      <trkpt lat="44.8714" lon="5.70706">
        <ele>521</ele>
        <time>2021-08-08T07:03:03+02:00</time>
      </trkpt>
      <trkpt lat="44.87148" lon="5.70716">
        <ele>574</ele>
        <time>2021-08-05T10:59:45+02:00</time>
      </trkpt>
      <trkpt lat="44.87166" lon="5.70741">
        <ele>523</ele>
        <time>2021-08-05T11:00:07+02:00</time>
      </trkpt>
      <trkpt lat="44.87166" lon="5.70773">
        <ele>575</ele>
        <time>2021-08-05T11:00:31+02:00</time>
      </trkpt>
      <trkpt lat="44.87163" lon="5.70794">
        <ele>517</ele>
        <time>2021-08-08T07:03:23+02:00</time>
      </trkpt>
      <trkpt lat="44.87146" lon="5.70789">
        <ele>513</ele>
        <time>2021-08-05T11:01:02+02:00</time>
      </trkpt>
      <trkpt lat="44.87125" lon="5.70798">
        <ele>512</ele>
        <time>2021-08-05T11:01:22+02:00</time>
      </trkpt>
      <trkpt lat="44.87105" lon="5.70813">
        <ele>577</ele>
        <time>2021-08-05T11:01:45+02:00</time>
      </trkpt>
      <trkpt lat="44.87104" lon="5.70846">
        <ele>576</ele>
        <time>2021-08-05T11:02:04+02:00</time>
      </trkpt>
      <trkpt lat="44.87093" lon="5.70856">
        <ele>518</ele>
        <time>2021-08-08T07:03:48+02:00</time>
      </trkpt>
      <trkpt lat="44.87081" lon="5.7085">
        <ele>579</ele>
        <time>2021-08-05T11:02:30+02:00</time>
      </trkpt>
      <trkpt lat="44.87062" lon="5.70832">
        <ele>578</ele>
        <time>2021-08-05T11:02:53+02:00</time>
      </trkpt>
      <trkpt lat="44.87039" lon="5.70831">
        <ele>577</ele>
        <time>2021-08-05T11:03:16+02:00</time>
      </trkpt>
      <trkpt lat="44.87028" lon="5.7086">
        <ele>578</ele>
        <time>2021-08-05T11:03:44+02:00</time>
      </trkpt>
      <trkpt lat="44.87022" lon="5.70893">
        <ele>518</ele>
        <time>2021-08-05T11:04:10+02:00</time>
      </trkpt>
      <trkpt lat="44.87006" lon="5.70916">
        <ele>585</ele>
        <time>2021-08-05T11:04:36+02:00</time>
      </trkpt>
      <trkpt lat="44.86996" lon="5.70949">
        <ele>526</ele>
        <time>2021-08-05T11:05:03+02:00</time>
      </trkpt>
      <trkpt lat="44.8698" lon="5.70947">
        <ele>525</ele>
        <time>2021-08-08T07:04:28+02:00</time>
      </trkpt>
      <trkpt lat="44.86968" lon="5.70936">
        <ele>584</ele>
        <time>2021-08-05T11:08:00+02:00</time>
      </trkpt>
      <trkpt lat="44.86946" lon="5.70921">
        <ele>576</ele>
        <time>2021-08-05T11:08:39+02:00</time>
      </trkpt>
      <trkpt lat="44.86926" lon="5.70904">
        <ele>573</ele>
        <time>2021-08-05T11:09:19+02:00</time>
      </trkpt>
      <trkpt lat="44.86906" lon="5.70888">
        <ele>569</ele>
        <time>2021-08-05T11:09:44+02:00</time>
      </trkpt>
      <trkpt lat="44.86887" lon="5.70872">
        <ele>569</ele>
        <time>2021-08-05T11:10:14+02:00</time>
      </trkpt>
      <trkpt lat="44.86867" lon="5.70855">
        <ele>570</ele>
        <time>2021-08-05T11:10:38+02:00</time>
      </trkpt>
      <trkpt lat="44.86847" lon="5.70839">
        <ele>571</ele>
        <time>2021-08-05T11:11:00+02:00</time>
      </trkpt>
      <trkpt lat="44.86826" lon="5.70823">
        <ele>573</ele>
        <time>2021-08-05T11:11:30+02:00</time>
      </trkpt>
      <trkpt lat="44.86808" lon="5.70805">
        <ele>576</ele>
        <time>2021-08-05T11:11:49+02:00</time>
      </trkpt>
      <trkpt lat="44.8679" lon="5.70783">
        <ele>587</ele>
        <time>2021-08-05T11:16:27+02:00</time>
      </trkpt>
      <trkpt lat="44.8679" lon="5.70751">
        <ele>533</ele>
        <time>2021-08-05T11:20:45+02:00</time>
      </trkpt>
      <trkpt lat="44.86791" lon="5.70719">
        <ele>531</ele>
        <time>2021-08-05T11:21:06+02:00</time>
      </trkpt>
      <trkpt lat="44.86795" lon="5.70688">
        <ele>527</ele>
        <time>2021-08-05T11:21:33+02:00</time>
      </trkpt>
      <trkpt lat="44.86802" lon="5.70658">
        <ele>521</ele>
        <time>2021-08-05T11:22:16+02:00</time>
      </trkpt>
      <trkpt lat="44.86807" lon="5.70632">
        <ele>517</ele>
        <time>2021-08-05T11:22:50+02:00</time>
      </trkpt>
      <trkpt lat="44.86823" lon="5.70592">
        <ele>508</ele>
        <time>2021-08-05T11:23:31+02:00</time>
      </trkpt>
      <trkpt lat="44.86842" lon="5.70557">
        <ele>496</ele>
        <time>2021-08-05T11:24:17+02:00</time>
      </trkpt>
      <trkpt lat="44.8686" lon="5.70553">
        <ele>564</ele>
        <time>2021-08-05T11:25:00+02:00</time>
      </trkpt>
      <trkpt lat="44.86859" lon="5.70523">
        <ele>500</ele>
        <time>2021-08-05T11:25:26+02:00</time>
      </trkpt>
      <trkpt lat="44.86844" lon="5.70498">
        <ele>505</ele>
        <time>2021-08-05T11:26:15+02:00</time>
      </trkpt>
      <trkpt lat="44.86839" lon="5.70469">
        <ele>512</ele>
        <time>2021-08-05T11:26:48+02:00</time>
      </trkpt>
      <trkpt lat="44.86837" lon="5.70453">
        <ele>514</ele>
        <time>2021-08-08T07:06:18+02:00</time>
      </trkpt>
      <trkpt lat="44.86836" lon="5.70431">
        <ele>516</ele>
        <time>2021-08-05T11:27:19+02:00</time>
      </trkpt>
      <trkpt lat="44.86834" lon="5.70402">
        <ele>518</ele>
        <time>2021-08-05T11:27:45+02:00</time>
      </trkpt>
      <trkpt lat="44.86831" lon="5.70376">
        <ele>517</ele>
        <time>2021-08-05T11:28:10+02:00</time>
      </trkpt>
      <trkpt lat="44.86816" lon="5.70355">
        <ele>521</ele>
        <time>2021-08-05T11:28:53+02:00</time>
      </trkpt>
      <trkpt lat="44.86799" lon="5.70335">
        <ele>524</ele>
        <time>2021-08-05T11:33:00+02:00</time>
      </trkpt>
      <trkpt lat="44.86782" lon="5.70321">
        <ele>529</ele>
        <time>2021-08-08T07:06:48+02:00</time>
      </trkpt>
      <trkpt lat="44.86776" lon="5.70305">
        <ele>529</ele>
        <time>2021-08-05T11:33:22+02:00</time>
      </trkpt>
      <trkpt lat="44.86777" lon="5.7027">
        <ele>525</ele>
        <time>2021-08-05T11:33:52+02:00</time>
      </trkpt>
      <trkpt lat="44.86763" lon="5.70254">
        <ele>533</ele>
        <time>2021-08-05T11:34:42+02:00</time>
      </trkpt>
      <trkpt lat="44.86747" lon="5.70242">
        <ele>543</ele>
        <time>2021-08-05T11:35:02+02:00</time>
      </trkpt>
      <trkpt lat="44.86738" lon="5.7022">
        <ele>546</ele>
        <time>2021-08-08T07:07:13+02:00</time>
      </trkpt>
      <trkpt lat="44.86732" lon="5.70192">
        <ele>549</ele>
        <time>2021-08-05T11:35:27+02:00</time>
      </trkpt>
      <trkpt lat="44.86729" lon="5.70163">
        <ele>551</ele>
        <time>2021-08-05T11:35:50+02:00</time>
      </trkpt>
      <trkpt lat="44.86725" lon="5.70122">
        <ele>555</ele>
        <time>2021-08-05T11:36:26+02:00</time>
      </trkpt>
      <trkpt lat="44.86725" lon="5.70091">
        <ele>558</ele>
        <time>2021-08-05T11:37:01+02:00</time>
      </trkpt>
      <trkpt lat="44.86723" lon="5.70064">
        <ele>622</ele>
        <time>2021-08-05T11:37:32+02:00</time>
      </trkpt>
      <trkpt lat="44.86705" lon="5.70038">
        <ele>573</ele>
        <time>2021-08-05T11:43:45+02:00</time>
      </trkpt>
      <trkpt lat="44.86704" lon="5.70016">
        <ele>573</ele>
        <time>2021-08-05T11:45:36+02:00</time>
      </trkpt>
      <trkpt lat="44.86695" lon="5.70011">
        <ele>576</ele>
        <time>2021-08-08T07:07:53+02:00</time>
      </trkpt>
      <trkpt lat="44.86693" lon="5.70025">
        <ele>634</ele>
        <time>2021-08-05T11:46:21+02:00</time>
      </trkpt>
      <trkpt lat="44.86666" lon="5.70036">
        <ele>588</ele>
        <time>2021-08-05T11:47:29+02:00</time>
      </trkpt>
      <trkpt lat="44.86651" lon="5.70021">
        <ele>593</ele>
        <time>2021-08-08T07:08:08+02:00</time>
      </trkpt>
      <trkpt lat="44.86641" lon="5.70003">
        <ele>594</ele>
        <time>2021-08-05T11:48:10+02:00</time>
      </trkpt>
      <trkpt lat="44.86644" lon="5.69977">
        <ele>590</ele>
        <time>2021-08-05T11:50:11+02:00</time>
      </trkpt>
      <trkpt lat="44.86638" lon="5.69947">
        <ele>645</ele>
        <time>2021-08-05T11:50:43+02:00</time>
      </trkpt>
      <trkpt lat="44.86626" lon="5.69919">
        <ele>647</ele>
        <time>2021-08-05T11:51:05+02:00</time>
      </trkpt>
      <trkpt lat="44.86606" lon="5.69898">
        <ele>585</ele>
        <time>2021-08-05T11:51:35+02:00</time>
      </trkpt>
      <trkpt lat="44.86586" lon="5.69881">
        <ele>586</ele>
        <time>2021-08-05T11:52:12+02:00</time>
      </trkpt>
      <trkpt lat="44.86563" lon="5.69857">
        <ele>587</ele>
        <time>2021-08-05T11:52:38+02:00</time>
      </trkpt>
      <trkpt lat="44.86558" lon="5.69829">
        <ele>583</ele>
        <time>2021-08-05T11:53:00+02:00</time>
      </trkpt>
      <trkpt lat="44.86549" lon="5.69818">
        <ele>584</ele>
        <time>2021-08-08T07:08:53+02:00</time>
      </trkpt>
      <trkpt lat="44.86534" lon="5.69814">
        <ele>589</ele>
        <time>2021-08-08T07:08:58+02:00</time>
      </trkpt>
      <trkpt lat="44.86532" lon="5.69802">
        <ele>589</ele>
        <time>2021-08-05T11:53:48+02:00</time>
      </trkpt>
      <trkpt lat="44.86531" lon="5.69781">
        <ele>586</ele>
        <time>2021-08-05T11:54:23+02:00</time>
      </trkpt>
      <trkpt lat="44.86527" lon="5.69766">
        <ele>589</ele>
        <time>2021-08-08T07:09:13+02:00</time>
      </trkpt>
      <trkpt lat="44.86525" lon="5.69757">
        <ele>590</ele>
        <time>2021-08-08T07:09:18+02:00</time>
      </trkpt>
      <trkpt lat="44.86527" lon="5.69742">
        <ele>659</ele>
        <time>2021-08-05T11:55:14+02:00</time>
      </trkpt>
      <trkpt lat="44.86521" lon="5.69717">
        <ele>600</ele>
        <time>2021-08-05T11:55:38+02:00</time>
      </trkpt>
      <trkpt lat="44.86521" lon="5.69703">
        <ele>602</ele>
        <time>2021-08-08T07:09:33+02:00</time>
      </trkpt>
      <trkpt lat="44.86529" lon="5.69692">
        <ele>602</ele>
        <time>2021-08-05T11:57:01+02:00</time>
      </trkpt>
      <trkpt lat="44.86535" lon="5.6969">
        <ele>601</ele>
        <time>2021-08-05T12:00:23+02:00</time>
      </trkpt>
      <trkpt lat="44.86551" lon="5.69688">
        <ele>597</ele>
        <time>2021-08-05T12:37:15+02:00</time>
      </trkpt>
      <trkpt lat="44.86559" lon="5.69689">
        <ele>596</ele>
        <time>2021-08-05T12:37:48+02:00</time>
      </trkpt>
      <trkpt lat="44.86577" lon="5.69677">
        <ele>598</ele>
        <time>2021-08-05T12:38:15+02:00</time>
      </trkpt>
      <trkpt lat="44.86594" lon="5.6967">
        <ele>599</ele>
        <time>2021-08-05T12:38:43+02:00</time>
      </trkpt>
      <trkpt lat="44.86602" lon="5.69661">
        <ele>601</ele>
        <time>2021-08-05T12:39:12+02:00</time>
      </trkpt>
      <trkpt lat="44.86602" lon="5.69648">
        <ele>603</ele>
        <time>2021-08-08T07:10:13+02:00</time>
      </trkpt>
      <trkpt lat="44.86602" lon="5.69631">
        <ele>606</ele>
        <time>2021-08-05T12:39:50+02:00</time>
      </trkpt>
      <trkpt lat="44.86601" lon="5.69608">
        <ele>610</ele>
        <time>2021-08-05T12:40:09+02:00</time>
      </trkpt>
      <trkpt lat="44.86608" lon="5.69589">
        <ele>613</ele>
        <time>2021-08-08T07:10:28+02:00</time>
      </trkpt>
      <trkpt lat="44.86605" lon="5.69579">
        <ele>614</ele>
        <time>2021-08-08T07:10:33+02:00</time>
      </trkpt>
      <trkpt lat="44.86611" lon="5.69568">
        <ele>616</ele>
        <time>2021-08-05T12:40:46+02:00</time>
      </trkpt>
      <trkpt lat="44.86626" lon="5.69543">
        <ele>672</ele>
        <time>2021-08-05T12:41:14+02:00</time>
      </trkpt>
      <trkpt lat="44.86632" lon="5.69513">
        <ele>672</ele>
        <time>2021-08-05T12:41:33+02:00</time>
      </trkpt>
      <trkpt lat="44.86633" lon="5.69481">
        <ele>675</ele>
        <time>2021-08-05T12:42:03+02:00</time>
      </trkpt>
      <trkpt lat="44.86611" lon="5.69493">
        <ele>672</ele>
        <time>2021-08-05T12:42:30+02:00</time>
      </trkpt>
      <trkpt lat="44.86598" lon="5.69519">
        <ele>674</ele>
        <time>2021-08-05T12:42:49+02:00</time>
      </trkpt>
      <trkpt lat="44.86576" lon="5.69525">
        <ele>675</ele>
        <time>2021-08-05T12:43:15+02:00</time>
      </trkpt>
      <trkpt lat="44.86554" lon="5.69514">
        <ele>678</ele>
        <time>2021-08-05T12:43:40+02:00</time>
      </trkpt>
      <trkpt lat="44.86534" lon="5.695">
        <ele>679</ele>
        <time>2021-08-05T12:44:05+02:00</time>
      </trkpt>
      <trkpt lat="44.86515" lon="5.6948">
        <ele>680</ele>
        <time>2021-08-05T12:44:32+02:00</time>
      </trkpt>
      <trkpt lat="44.86495" lon="5.69465">
        <ele>689</ele>
        <time>2021-08-05T12:44:55+02:00</time>
      </trkpt>
      <trkpt lat="44.86478" lon="5.69444">
        <ele>696</ele>
        <time>2021-08-05T12:45:19+02:00</time>
      </trkpt>
      <trkpt lat="44.86459" lon="5.69426">
        <ele>699</ele>
        <time>2021-08-05T12:45:51+02:00</time>
      </trkpt>
      <trkpt lat="44.86439" lon="5.69411">
        <ele>703</ele>
        <time>2021-08-05T12:46:29+02:00</time>
      </trkpt>
      <trkpt lat="44.86418" lon="5.694">
        <ele>707</ele>
        <time>2021-08-05T12:47:03+02:00</time>
      </trkpt>
      <trkpt lat="44.86394" lon="5.69401">
        <ele>707</ele>
        <time>2021-08-05T12:47:30+02:00</time>
      </trkpt>
      <trkpt lat="44.86373" lon="5.69414">
        <ele>709</ele>
        <time>2021-08-05T12:52:02+02:00</time>
      </trkpt>
      <trkpt lat="44.86355" lon="5.69396">
        <ele>712</ele>
        <time>2021-08-05T12:52:33+02:00</time>
      </trkpt>
      <trkpt lat="44.86348" lon="5.69366">
        <ele>716</ele>
        <time>2021-08-05T12:53:02+02:00</time>
      </trkpt>
      <trkpt lat="44.86347" lon="5.69333">
        <ele>718</ele>
        <time>2021-08-05T12:53:29+02:00</time>
      </trkpt>
      <trkpt lat="44.86352" lon="5.69301">
        <ele>720</ele>
        <time>2021-08-05T12:53:52+02:00</time>
      </trkpt>
      <trkpt lat="44.86364" lon="5.69273">
        <ele>719</ele>
        <time>2021-08-05T12:54:14+02:00</time>
      </trkpt>
      <trkpt lat="44.86378" lon="5.69247">
        <ele>719</ele>
        <time>2021-08-05T12:54:36+02:00</time>
      </trkpt>
      <trkpt lat="44.86398" lon="5.69229">
        <ele>716</ele>
        <time>2021-08-05T12:54:57+02:00</time>
      </trkpt>
      <trkpt lat="44.86418" lon="5.69213">
        <ele>710</ele>
        <time>2021-08-05T12:55:16+02:00</time>
      </trkpt>
      <trkpt lat="44.86437" lon="5.69193">
        <ele>708</ele>
        <time>2021-08-05T12:55:37+02:00</time>
      </trkpt>
      <trkpt lat="44.86455" lon="5.69172">
        <ele>707</ele>
        <time>2021-08-05T12:55:57+02:00</time>
      </trkpt>
      <trkpt lat="44.86476" lon="5.69159">
        <ele>706</ele>
        <time>2021-08-05T12:56:16+02:00</time>
      </trkpt>
      <trkpt lat="44.86495" lon="5.69141">
        <ele>702</ele>
        <time>2021-08-05T12:56:37+02:00</time>
      </trkpt>
      <trkpt lat="44.86511" lon="5.69118">
        <ele>700</ele>
        <time>2021-08-05T12:56:59+02:00</time>
      </trkpt>
      <trkpt lat="44.86521" lon="5.69089">
        <ele>700</ele>
        <time>2021-08-05T12:57:20+02:00</time>
      </trkpt>
      <trkpt lat="44.86533" lon="5.69061">
        <ele>700</ele>
        <time>2021-08-05T12:57:39+02:00</time>
      </trkpt>
      <trkpt lat="44.86516" lon="5.69039">
        <ele>696</ele>
        <time>2021-08-05T12:58:40+02:00</time>
      </trkpt>
      <trkpt lat="44.86494" lon="5.69027">
        <ele>698</ele>
        <time>2021-08-05T12:58:59+02:00</time>
      </trkpt>
      <trkpt lat="44.86475" lon="5.69011">
        <ele>702</ele>
        <time>2021-08-05T12:59:15+02:00</time>
      </trkpt>
      <trkpt lat="44.86456" lon="5.68993">
        <ele>706</ele>
        <time>2021-08-05T12:59:42+02:00</time>
      </trkpt>
      <trkpt lat="44.8644" lon="5.6897">
        <ele>711</ele>
        <time>2021-08-05T13:00:14+02:00</time>
      </trkpt>
      <trkpt lat="44.86424" lon="5.68946">
        <ele>713</ele>
        <time>2021-08-05T13:00:44+02:00</time>
      </trkpt>
      <trkpt lat="44.86409" lon="5.68923">
        <ele>718</ele>
        <time>2021-08-05T13:01:40+02:00</time>
      </trkpt>
      <trkpt lat="44.8639" lon="5.68906">
        <ele>725</ele>
        <time>2021-08-05T13:02:53+02:00</time>
      </trkpt>
      <trkpt lat="44.86369" lon="5.68891">
        <ele>732</ele>
        <time>2021-08-05T13:05:59+02:00</time>
      </trkpt>
      <trkpt lat="44.86347" lon="5.68897">
        <ele>735</ele>
        <time>2021-08-05T13:09:25+02:00</time>
      </trkpt>
      <trkpt lat="44.86325" lon="5.68909">
        <ele>741</ele>
        <time>2021-08-05T13:09:51+02:00</time>
      </trkpt>
      <trkpt lat="44.86306" lon="5.68927">
        <ele>742</ele>
        <time>2021-08-05T13:10:18+02:00</time>
      </trkpt>
      <trkpt lat="44.86284" lon="5.68928">
        <ele>742</ele>
        <time>2021-08-05T13:10:58+02:00</time>
      </trkpt>
      <trkpt lat="44.86239" lon="5.6893">
        <ele>696</ele>
        <time>2021-08-05T13:11:17+02:00</time>
      </trkpt>
      <trkpt lat="44.86254" lon="5.68905">
        <ele>688</ele>
        <time>2021-08-08T07:14:28+02:00</time>
      </trkpt>
      <trkpt lat="44.86249" lon="5.68875">
        <ele>681</ele>
        <time>2021-08-05T13:13:11+02:00</time>
      </trkpt>
      <trkpt lat="44.86271" lon="5.68873">
        <ele>735</ele>
        <time>2021-08-05T13:14:30+02:00</time>
      </trkpt>
      <trkpt lat="44.86293" lon="5.68864">
        <ele>736</ele>
        <time>2021-08-05T13:15:02+02:00</time>
      </trkpt>
      <trkpt lat="44.86314" lon="5.68852">
        <ele>736</ele>
        <time>2021-08-05T13:15:31+02:00</time>
      </trkpt>
      <trkpt lat="44.86333" lon="5.68835">
        <ele>731</ele>
        <time>2021-08-05T13:16:00+02:00</time>
      </trkpt>
      <trkpt lat="44.86351" lon="5.68816">
        <ele>732</ele>
        <time>2021-08-05T13:16:26+02:00</time>
      </trkpt>
      <trkpt lat="44.86364" lon="5.68789">
        <ele>727</ele>
        <time>2021-08-05T13:16:50+02:00</time>
      </trkpt>
      <trkpt lat="44.86382" lon="5.68764">
        <ele>729</ele>
        <time>2021-08-05T13:17:44+02:00</time>
      </trkpt>
      <trkpt lat="44.86399" lon="5.68742">
        <ele>728</ele>
        <time>2021-08-05T13:18:05+02:00</time>
      </trkpt>
      <trkpt lat="44.86417" lon="5.68724">
        <ele>726</ele>
        <time>2021-08-05T13:18:36+02:00</time>
      </trkpt>
      <trkpt lat="44.8643" lon="5.68698">
        <ele>726</ele>
        <time>2021-08-05T13:19:15+02:00</time>
      </trkpt>
      <trkpt lat="44.86442" lon="5.6867">
        <ele>724</ele>
        <time>2021-08-05T13:19:38+02:00</time>
      </trkpt>
      <trkpt lat="44.8645" lon="5.6864">
        <ele>718</ele>
        <time>2021-08-05T13:20:11+02:00</time>
      </trkpt>
      <trkpt lat="44.86455" lon="5.68608">
        <ele>716</ele>
        <time>2021-08-05T13:20:35+02:00</time>
      </trkpt>
      <trkpt lat="44.86453" lon="5.68576">
        <ele>716</ele>
        <time>2021-08-05T13:21:11+02:00</time>
      </trkpt>
      <trkpt lat="44.86462" lon="5.68545">
        <ele>707</ele>
        <time>2021-08-05T13:21:50+02:00</time>
      </trkpt>
      <trkpt lat="44.86459" lon="5.68513">
        <ele>708</ele>
        <time>2021-08-05T13:24:06+02:00</time>
      </trkpt>
      <trkpt lat="44.86476" lon="5.68493">
        <ele>702</ele>
        <time>2021-08-05T13:25:17+02:00</time>
      </trkpt>
      <trkpt lat="44.86494" lon="5.68471">
        <ele>702</ele>
        <time>2021-08-05T13:25:37+02:00</time>
      </trkpt>
      <trkpt lat="44.86507" lon="5.68445">
        <ele>700</ele>
        <time>2021-08-05T13:25:59+02:00</time>
      </trkpt>
      <trkpt lat="44.86518" lon="5.68417">
        <ele>698</ele>
        <time>2021-08-05T13:26:19+02:00</time>
      </trkpt>
      <trkpt lat="44.86534" lon="5.68394">
        <ele>703</ele>
        <time>2021-08-05T13:26:52+02:00</time>
      </trkpt>
      <trkpt lat="44.86554" lon="5.68377">
        <ele>703</ele>
        <time>2021-08-05T13:27:14+02:00</time>
      </trkpt>
      <trkpt lat="44.86569" lon="5.68352">
        <ele>702</ele>
        <time>2021-08-05T13:28:04+02:00</time>
      </trkpt>
      <trkpt lat="44.86564" lon="5.6832">
        <ele>695</ele>
        <time>2021-08-05T13:30:47+02:00</time>
      </trkpt>
      <trkpt lat="44.86587" lon="5.68314">
        <ele>698</ele>
        <time>2021-08-05T13:33:15+02:00</time>
      </trkpt>
      <trkpt lat="44.8661" lon="5.68316">
        <ele>701</ele>
        <time>2021-08-05T13:33:36+02:00</time>
      </trkpt>
      <trkpt lat="44.86626" lon="5.68292">
        <ele>704</ele>
        <time>2021-08-05T13:33:56+02:00</time>
      </trkpt>
      <trkpt lat="44.86643" lon="5.6827">
        <ele>700</ele>
        <time>2021-08-05T13:34:22+02:00</time>
      </trkpt>
      <trkpt lat="44.86653" lon="5.68242">
        <ele>696</ele>
        <time>2021-08-05T13:34:39+02:00</time>
      </trkpt>
      <trkpt lat="44.86674" lon="5.68229">
        <ele>694</ele>
        <time>2021-08-05T13:36:31+02:00</time>
      </trkpt>
      <trkpt lat="44.86685" lon="5.68201">
        <ele>699</ele>
        <time>2021-08-05T13:36:55+02:00</time>
      </trkpt>
      <trkpt lat="44.86686" lon="5.68169">
        <ele>698</ele>
        <time>2021-08-05T13:37:16+02:00</time>
      </trkpt>
      <trkpt lat="44.86696" lon="5.6814">
        <ele>692</ele>
        <time>2021-08-05T13:37:54+02:00</time>
      </trkpt>
      <trkpt lat="44.86711" lon="5.68116">
        <ele>684</ele>
        <time>2021-08-05T13:38:30+02:00</time>
      </trkpt>
      <trkpt lat="44.86722" lon="5.68086">
        <ele>682</ele>
        <time>2021-08-05T13:39:11+02:00</time>
      </trkpt>
      <trkpt lat="44.86731" lon="5.68055">
        <ele>682</ele>
        <time>2021-08-05T13:39:31+02:00</time>
      </trkpt>
      <trkpt lat="44.86746" lon="5.6803">
        <ele>678</ele>
        <time>2021-08-05T13:39:52+02:00</time>
      </trkpt>
      <trkpt lat="44.86758" lon="5.68003">
        <ele>675</ele>
        <time>2021-08-05T13:40:18+02:00</time>
      </trkpt>
      <trkpt lat="44.86775" lon="5.67981">
        <ele>675</ele>
        <time>2021-08-05T13:40:39+02:00</time>
      </trkpt>
      <trkpt lat="44.8679" lon="5.67955">
        <ele>678</ele>
        <time>2021-08-05T13:40:56+02:00</time>
      </trkpt>
      <trkpt lat="44.86802" lon="5.67928">
        <ele>675</ele>
        <time>2021-08-05T13:41:14+02:00</time>
      </trkpt>
      <trkpt lat="44.86816" lon="5.67902">
        <ele>678</ele>
        <time>2021-08-05T13:41:33+02:00</time>
      </trkpt>
      <trkpt lat="44.8683" lon="5.67876">
        <ele>677</ele>
        <time>2021-08-05T13:41:59+02:00</time>
      </trkpt>
      <trkpt lat="44.86843" lon="5.67848">
        <ele>674</ele>
        <time>2021-08-05T13:42:48+02:00</time>
      </trkpt>
      <trkpt lat="44.86853" lon="5.67818">
        <ele>669</ele>
        <time>2021-08-05T13:44:23+02:00</time>
      </trkpt>
      <trkpt lat="44.86863" lon="5.6779">
        <ele>665</ele>
        <time>2021-08-05T13:44:46+02:00</time>
      </trkpt>
      <trkpt lat="44.8688" lon="5.67767">
        <ele>664</ele>
        <time>2021-08-05T13:45:10+02:00</time>
      </trkpt>
      <trkpt lat="44.8689" lon="5.67738">
        <ele>663</ele>
        <time>2021-08-05T13:45:49+02:00</time>
      </trkpt>
      <trkpt lat="44.86903" lon="5.67711">
        <ele>658</ele>
        <time>2021-08-05T13:46:11+02:00</time>
      </trkpt>
      <trkpt lat="44.86918" lon="5.67686">
        <ele>653</ele>
        <time>2021-08-05T13:46:33+02:00</time>
      </trkpt>
      <trkpt lat="44.86932" lon="5.6766">
        <ele>652</ele>
        <time>2021-08-05T13:46:51+02:00</time>
      </trkpt>
      <trkpt lat="44.86944" lon="5.67632">
        <ele>649</ele>
        <time>2021-08-05T13:47:18+02:00</time>
      </trkpt>
      <trkpt lat="44.86958" lon="5.67606">
        <ele>652</ele>
        <time>2021-08-05T13:47:41+02:00</time>
      </trkpt>
      <trkpt lat="44.8696" lon="5.67574">
        <ele>650</ele>
        <time>2021-08-05T13:48:06+02:00</time>
      </trkpt>
      <trkpt lat="44.86951" lon="5.67544">
        <ele>652</ele>
        <time>2021-08-05T13:48:21+02:00</time>
      </trkpt>
      <trkpt lat="44.86964" lon="5.67517">
        <ele>651</ele>
        <time>2021-08-05T13:49:16+02:00</time>
      </trkpt>
      <trkpt lat="44.8698" lon="5.67494">
        <ele>646</ele>
        <time>2021-08-05T13:49:44+02:00</time>
      </trkpt>
      <trkpt lat="44.86994" lon="5.67468">
        <ele>645</ele>
        <time>2021-08-05T13:50:07+02:00</time>
      </trkpt>
      <trkpt lat="44.87005" lon="5.6744">
        <ele>645</ele>
        <time>2021-08-05T13:50:32+02:00</time>
      </trkpt>
      <trkpt lat="44.87018" lon="5.67405">
        <ele>569</ele>
        <time>2021-08-08T07:19:33+02:00</time>
      </trkpt>
      <trkpt lat="44.87032" lon="5.67415">
        <ele>569</ele>
        <time>2021-08-05T13:51:20+02:00</time>
      </trkpt>
      <trkpt lat="44.87037" lon="5.67434">
        <ele>569</ele>
        <time>2021-08-08T07:19:43+02:00</time>
      </trkpt>
      <trkpt lat="44.87023" lon="5.67453">
        <ele>636</ele>
        <time>2021-08-05T13:52:21+02:00</time>
      </trkpt>
      <trkpt lat="44.87026" lon="5.67484">
        <ele>635</ele>
        <time>2021-08-05T13:52:46+02:00</time>
      </trkpt>
      <trkpt lat="44.87032" lon="5.67515">
        <ele>629</ele>
        <time>2021-08-05T13:53:25+02:00</time>
      </trkpt>
      <trkpt lat="44.87038" lon="5.67542">
        <ele>549</ele>
        <time>2021-08-05T13:54:07+02:00</time>
      </trkpt>
      <trkpt lat="44.87035" lon="5.67566">
        <ele>550</ele>
        <time>2021-08-08T07:20:08+02:00</time>
      </trkpt>
      <trkpt lat="44.87044" lon="5.67575">
        <ele>625</ele>
        <time>2021-08-05T13:55:19+02:00</time>
      </trkpt>
      <trkpt lat="44.87061" lon="5.67597">
        <ele>619</ele>
        <time>2021-08-05T13:55:40+02:00</time>
      </trkpt>
      <trkpt lat="44.87076" lon="5.67621">
        <ele>608</ele>
        <time>2021-08-05T13:56:05+02:00</time>
      </trkpt>
      <trkpt lat="44.87083" lon="5.67645">
        <ele>532</ele>
        <time>2021-08-05T13:58:18+02:00</time>
      </trkpt>
      <trkpt lat="44.87096" lon="5.6766">
        <ele>592</ele>
        <time>2021-08-05T13:58:58+02:00</time>
      </trkpt>
      <trkpt lat="44.87119" lon="5.67655">
        <ele>589</ele>
        <time>2021-08-05T14:00:15+02:00</time>
      </trkpt>
      <trkpt lat="44.87141" lon="5.67664">
        <ele>588</ele>
        <time>2021-08-05T14:00:39+02:00</time>
      </trkpt>
      <trkpt lat="44.87162" lon="5.67675">
        <ele>587</ele>
        <time>2021-08-05T14:01:05+02:00</time>
      </trkpt>
      <trkpt lat="44.87184" lon="5.67682">
        <ele>581</ele>
        <time>2021-08-05T14:01:26+02:00</time>
      </trkpt>
      <trkpt lat="44.87207" lon="5.67689">
        <ele>584</ele>
        <time>2021-08-05T14:01:48+02:00</time>
      </trkpt>
      <trkpt lat="44.87227" lon="5.67703">
        <ele>585</ele>
        <time>2021-08-05T14:02:10+02:00</time>
      </trkpt>
      <trkpt lat="44.87249" lon="5.67712">
        <ele>589</ele>
        <time>2021-08-05T14:02:31+02:00</time>
      </trkpt>
      <trkpt lat="44.87271" lon="5.67722">
        <ele>601</ele>
        <time>2021-08-05T14:03:00+02:00</time>
      </trkpt>
      <trkpt lat="44.87293" lon="5.67732">
        <ele>593</ele>
        <time>2021-08-05T14:09:15+02:00</time>
      </trkpt>
      <trkpt lat="44.87293" lon="5.677">
        <ele>588</ele>
        <time>2021-08-05T14:15:34+02:00</time>
      </trkpt>
      <trkpt lat="44.87288" lon="5.67669">
        <ele>589</ele>
        <time>2021-08-05T14:15:58+02:00</time>
      </trkpt>
      <trkpt lat="44.87303" lon="5.67659">
        <ele>545</ele>
        <time>2021-08-05T14:16:44+02:00</time>
      </trkpt>
      <trkpt lat="44.873" lon="5.67636">
        <ele>600</ele>
        <time>2021-08-05T14:17:37+02:00</time>
      </trkpt>
      <trkpt lat="44.8732" lon="5.67652">
        <ele>612</ele>
        <time>2021-08-05T14:19:37+02:00</time>
      </trkpt>
      <trkpt lat="44.87342" lon="5.67661">
        <ele>611</ele>
        <time>2021-08-05T14:20:28+02:00</time>
      </trkpt>
      <trkpt lat="44.87363" lon="5.67675">
        <ele>605</ele>
        <time>2021-08-05T14:21:57+02:00</time>
      </trkpt>
      <trkpt lat="44.87386" lon="5.67679">
        <ele>608</ele>
        <time>2021-08-05T14:22:23+02:00</time>
      </trkpt>
      <trkpt lat="44.87407" lon="5.67692">
        <ele>609</ele>
        <time>2021-08-05T14:22:39+02:00</time>
      </trkpt>
      <trkpt lat="44.8743" lon="5.6769">
        <ele>609</ele>
        <time>2021-08-05T14:22:59+02:00</time>
      </trkpt>
      <trkpt lat="44.87453" lon="5.67695">
        <ele>611</ele>
        <time>2021-08-05T14:23:26+02:00</time>
      </trkpt>
      <trkpt lat="44.87476" lon="5.67697">
        <ele>610</ele>
        <time>2021-08-05T14:23:45+02:00</time>
      </trkpt>
      <trkpt lat="44.87498" lon="5.67693">
        <ele>613</ele>
        <time>2021-08-05T14:24:04+02:00</time>
      </trkpt>
      <trkpt lat="44.87521" lon="5.67702">
        <ele>618</ele>
        <time>2021-08-05T14:24:24+02:00</time>
      </trkpt>
      <trkpt lat="44.87544" lon="5.67699">
        <ele>613</ele>
        <time>2021-08-05T14:24:44+02:00</time>
      </trkpt>
      <trkpt lat="44.87566" lon="5.67708">
        <ele>610</ele>
        <time>2021-08-05T14:25:03+02:00</time>
      </trkpt>
      <trkpt lat="44.87588" lon="5.67717">
        <ele>614</ele>
        <time>2021-08-05T14:25:26+02:00</time>
      </trkpt>
      <trkpt lat="44.87612" lon="5.67718">
        <ele>614</ele>
        <time>2021-08-05T14:25:46+02:00</time>
      </trkpt>
      <trkpt lat="44.87632" lon="5.67732">
        <ele>615</ele>
        <time>2021-08-05T14:26:02+02:00</time>
      </trkpt>
      <trkpt lat="44.87655" lon="5.67728">
        <ele>610</ele>
        <time>2021-08-05T14:26:19+02:00</time>
      </trkpt>
      <trkpt lat="44.87679" lon="5.67731">
        <ele>609</ele>
        <time>2021-08-05T14:26:42+02:00</time>
      </trkpt>
      <trkpt lat="44.87702" lon="5.67722">
        <ele>608</ele>
        <time>2021-08-05T14:27:01+02:00</time>
      </trkpt>
      <trkpt lat="44.87725" lon="5.67727">
        <ele>613</ele>
        <time>2021-08-05T14:27:25+02:00</time>
      </trkpt>
      <trkpt lat="44.87747" lon="5.67718">
        <ele>611</ele>
        <time>2021-08-05T14:27:41+02:00</time>
      </trkpt>
      <trkpt lat="44.87769" lon="5.67713">
        <ele>606</ele>
        <time>2021-08-05T14:27:58+02:00</time>
      </trkpt>
      <trkpt lat="44.87793" lon="5.67714">
        <ele>613</ele>
        <time>2021-08-05T14:28:21+02:00</time>
      </trkpt>
      <trkpt lat="44.87815" lon="5.67706">
        <ele>613</ele>
        <time>2021-08-05T14:28:39+02:00</time>
      </trkpt>
      <trkpt lat="44.87838" lon="5.677">
        <ele>615</ele>
        <time>2021-08-05T14:29:00+02:00</time>
      </trkpt>
      <trkpt lat="44.87862" lon="5.67704">
        <ele>613</ele>
        <time>2021-08-05T14:29:22+02:00</time>
      </trkpt>
      <trkpt lat="44.87885" lon="5.677">
        <ele>608</ele>
        <time>2021-08-05T14:29:42+02:00</time>
      </trkpt>
      <trkpt lat="44.87908" lon="5.67695">
        <ele>606</ele>
        <time>2021-08-05T14:29:59+02:00</time>
      </trkpt>
      <trkpt lat="44.8793" lon="5.67683">
        <ele>609</ele>
        <time>2021-08-05T14:30:22+02:00</time>
      </trkpt>
      <trkpt lat="44.87951" lon="5.67671">
        <ele>614</ele>
        <time>2021-08-05T14:30:43+02:00</time>
      </trkpt>
      <trkpt lat="44.87973" lon="5.67662">
        <ele>619</ele>
        <time>2021-08-05T14:31:11+02:00</time>
      </trkpt>
      <trkpt lat="44.87994" lon="5.67649">
        <ele>612</ele>
        <time>2021-08-05T14:31:25+02:00</time>
      </trkpt>
      <trkpt lat="44.88014" lon="5.67632">
        <ele>617</ele>
        <time>2021-08-05T14:34:15+02:00</time>
      </trkpt>
      <trkpt lat="44.88036" lon="5.67624">
        <ele>615</ele>
        <time>2021-08-05T14:34:38+02:00</time>
      </trkpt>
      <trkpt lat="44.88058" lon="5.67613">
        <ele>614</ele>
        <time>2021-08-05T14:35:03+02:00</time>
      </trkpt>
      <trkpt lat="44.88081" lon="5.67606">
        <ele>614</ele>
        <time>2021-08-05T14:35:23+02:00</time>
      </trkpt>
      <trkpt lat="44.88104" lon="5.67598">
        <ele>613</ele>
        <time>2021-08-05T14:35:47+02:00</time>
      </trkpt>
      <trkpt lat="44.88127" lon="5.67592">
        <ele>607</ele>
        <time>2021-08-05T14:36:03+02:00</time>
      </trkpt>
      <trkpt lat="44.8815" lon="5.67582">
        <ele>599</ele>
        <time>2021-08-05T14:36:25+02:00</time>
      </trkpt>
      <trkpt lat="44.88173" lon="5.67578">
        <ele>597</ele>
        <time>2021-08-05T14:36:48+02:00</time>
      </trkpt>
      <trkpt lat="44.88195" lon="5.6758">
        <ele>598</ele>
        <time>2021-08-05T14:37:09+02:00</time>
      </trkpt>
      <trkpt lat="44.88218" lon="5.67577">
        <ele>597</ele>
        <time>2021-08-05T14:37:31+02:00</time>
      </trkpt>
      <trkpt lat="44.88241" lon="5.67579">
        <ele>597</ele>
        <time>2021-08-05T14:37:50+02:00</time>
      </trkpt>
      <trkpt lat="44.88265" lon="5.67571">
        <ele>536</ele>
        <time>2021-08-05T14:38:08+02:00</time>
      </trkpt>
      <trkpt lat="44.88286" lon="5.67571">
        <ele>595</ele>
        <time>2021-08-05T14:38:25+02:00</time>
      </trkpt>
      <trkpt lat="44.88305" lon="5.67551">
        <ele>588</ele>
        <time>2021-08-05T14:38:46+02:00</time>
      </trkpt>
      <trkpt lat="44.88325" lon="5.67534">
        <ele>588</ele>
        <time>2021-08-05T14:39:08+02:00</time>
      </trkpt>
      <trkpt lat="44.88346" lon="5.67519">
        <ele>588</ele>
        <time>2021-08-05T14:39:31+02:00</time>
      </trkpt>
      <trkpt lat="44.88367" lon="5.67503">
        <ele>585</ele>
        <time>2021-08-05T14:39:55+02:00</time>
      </trkpt>
      <trkpt lat="44.88389" lon="5.67493">
        <ele>587</ele>
        <time>2021-08-05T14:40:15+02:00</time>
      </trkpt>
      <trkpt lat="44.88411" lon="5.67487">
        <ele>588</ele>
        <time>2021-08-05T14:40:36+02:00</time>
      </trkpt>
      <trkpt lat="44.88434" lon="5.67488">
        <ele>590</ele>
        <time>2021-08-05T14:40:58+02:00</time>
      </trkpt>
      <trkpt lat="44.88456" lon="5.6748">
        <ele>588</ele>
        <time>2021-08-05T14:41:15+02:00</time>
      </trkpt>
      <trkpt lat="44.8848" lon="5.67476">
        <ele>585</ele>
        <time>2021-08-05T14:42:16+02:00</time>
      </trkpt>
      <trkpt lat="44.88502" lon="5.67464">
        <ele>525</ele>
        <time>2021-08-05T14:42:46+02:00</time>
      </trkpt>
      <trkpt lat="44.8852" lon="5.67454">
        <ele>586</ele>
        <time>2021-08-05T14:43:06+02:00</time>
      </trkpt>
      <trkpt lat="44.88536" lon="5.67432">
        <ele>582</ele>
        <time>2021-08-05T14:43:24+02:00</time>
      </trkpt>
      <trkpt lat="44.88559" lon="5.67432">
        <ele>579</ele>
        <time>2021-08-05T14:44:27+02:00</time>
      </trkpt>
      <trkpt lat="44.88581" lon="5.67423">
        <ele>577</ele>
        <time>2021-08-05T14:44:47+02:00</time>
      </trkpt>
      <trkpt lat="44.88604" lon="5.67422">
        <ele>577</ele>
        <time>2021-08-05T14:45:06+02:00</time>
      </trkpt>
      <trkpt lat="44.88626" lon="5.67415">
        <ele>576</ele>
        <time>2021-08-05T14:45:28+02:00</time>
      </trkpt>
      <trkpt lat="44.8865" lon="5.67416">
        <ele>577</ele>
        <time>2021-08-05T14:45:46+02:00</time>
      </trkpt>
      <trkpt lat="44.88673" lon="5.67415">
        <ele>577</ele>
        <time>2021-08-05T14:46:03+02:00</time>
      </trkpt>
      <trkpt lat="44.88694" lon="5.67404">
        <ele>579</ele>
        <time>2021-08-05T14:46:55+02:00</time>
      </trkpt>
      <trkpt lat="44.88717" lon="5.67397">
        <ele>577</ele>
        <time>2021-08-05T14:47:18+02:00</time>
      </trkpt>
      <trkpt lat="44.88739" lon="5.67394">
        <ele>577</ele>
        <time>2021-08-05T14:47:45+02:00</time>
      </trkpt>
      <trkpt lat="44.88763" lon="5.67386">
        <ele>578</ele>
        <time>2021-08-05T14:48:03+02:00</time>
      </trkpt>
      <trkpt lat="44.88785" lon="5.67378">
        <ele>577</ele>
        <time>2021-08-05T14:48:25+02:00</time>
      </trkpt>
      <trkpt lat="44.88808" lon="5.67369">
        <ele>576</ele>
        <time>2021-08-05T14:48:46+02:00</time>
      </trkpt>
      <trkpt lat="44.8883" lon="5.67365">
        <ele>573</ele>
        <time>2021-08-05T14:49:05+02:00</time>
      </trkpt>
      <trkpt lat="44.88853" lon="5.67359">
        <ele>573</ele>
        <time>2021-08-05T14:49:27+02:00</time>
      </trkpt>
      <trkpt lat="44.88876" lon="5.67359">
        <ele>572</ele>
        <time>2021-08-05T14:49:47+02:00</time>
      </trkpt>
      <trkpt lat="44.88897" lon="5.67347">
        <ele>573</ele>
        <time>2021-08-05T14:50:11+02:00</time>
      </trkpt>
      <trkpt lat="44.88909" lon="5.6732">
        <ele>575</ele>
        <time>2021-08-05T14:51:23+02:00</time>
      </trkpt>
      <trkpt lat="44.88925" lon="5.67343">
        <ele>583</ele>
        <time>2021-08-05T14:53:22+02:00</time>
      </trkpt>
      <trkpt lat="44.88949" lon="5.67338">
        <ele>573</ele>
        <time>2021-08-05T14:53:47+02:00</time>
      </trkpt>
      <trkpt lat="44.88972" lon="5.67333">
        <ele>575</ele>
        <time>2021-08-05T14:54:12+02:00</time>
      </trkpt>
      <trkpt lat="44.88996" lon="5.67333">
        <ele>577</ele>
        <time>2021-08-05T14:54:33+02:00</time>
      </trkpt>
      <trkpt lat="44.89019" lon="5.67331">
        <ele>578</ele>
        <time>2021-08-05T14:54:48+02:00</time>
      </trkpt>
      <trkpt lat="44.89042" lon="5.67331">
        <ele>580</ele>
        <time>2021-08-05T14:55:11+02:00</time>
      </trkpt>
      <trkpt lat="44.89065" lon="5.67332">
        <ele>579</ele>
        <time>2021-08-05T14:55:32+02:00</time>
      </trkpt>
      <trkpt lat="44.89088" lon="5.67328">
        <ele>583</ele>
        <time>2021-08-05T14:55:57+02:00</time>
      </trkpt>
      <trkpt lat="44.8911" lon="5.67326">
        <ele>582</ele>
        <time>2021-08-05T14:56:17+02:00</time>
      </trkpt>
      <trkpt lat="44.89131" lon="5.67316">
        <ele>533</ele>
        <time>2021-08-05T14:56:43+02:00</time>
      </trkpt>
      <trkpt lat="44.89154" lon="5.67319">
        <ele>592</ele>
        <time>2021-08-05T14:57:00+02:00</time>
      </trkpt>
      <trkpt lat="44.89176" lon="5.6731">
        <ele>587</ele>
        <time>2021-08-05T14:57:21+02:00</time>
      </trkpt>
      <trkpt lat="44.89199" lon="5.67305">
        <ele>591</ele>
        <time>2021-08-05T14:57:43+02:00</time>
      </trkpt>
      <trkpt lat="44.89218" lon="5.67295">
        <ele>539</ele>
        <time>2021-08-05T14:58:04+02:00</time>
      </trkpt>
      <trkpt lat="44.89243" lon="5.67299">
        <ele>537</ele>
        <time>2021-08-05T14:58:24+02:00</time>
      </trkpt>
      <trkpt lat="44.89269" lon="5.67303">
        <ele>536</ele>
        <time>2021-08-05T14:58:47+02:00</time>
      </trkpt>
      <trkpt lat="44.8929" lon="5.67309">
        <ele>590</ele>
        <time>2021-08-05T14:59:04+02:00</time>
      </trkpt>
      <trkpt lat="44.89313" lon="5.67303">
        <ele>586</ele>
        <time>2021-08-05T14:59:25+02:00</time>
      </trkpt>
      <trkpt lat="44.89335" lon="5.67294">
        <ele>589</ele>
        <time>2021-08-05T14:59:45+02:00</time>
      </trkpt>
      <trkpt lat="44.89357" lon="5.67287">
        <ele>590</ele>
        <time>2021-08-05T15:00:07+02:00</time>
      </trkpt>
      <trkpt lat="44.8938" lon="5.67281">
        <ele>589</ele>
        <time>2021-08-05T15:00:25+02:00</time>
      </trkpt>
      <trkpt lat="44.89403" lon="5.67281">
        <ele>589</ele>
        <time>2021-08-05T15:00:48+02:00</time>
      </trkpt>
      <trkpt lat="44.89426" lon="5.67282">
        <ele>594</ele>
        <time>2021-08-05T15:01:08+02:00</time>
      </trkpt>
      <trkpt lat="44.89448" lon="5.67271">
        <ele>593</ele>
        <time>2021-08-05T15:01:30+02:00</time>
      </trkpt>
      <trkpt lat="44.89468" lon="5.67257">
        <ele>589</ele>
        <time>2021-08-05T15:01:49+02:00</time>
      </trkpt>
      <trkpt lat="44.8949" lon="5.67249">
        <ele>586</ele>
        <time>2021-08-05T15:02:25+02:00</time>
      </trkpt>
      <trkpt lat="44.89471" lon="5.67267">
        <ele>581</ele>
        <time>2021-08-05T15:04:12+02:00</time>
      </trkpt>
      <trkpt lat="44.89454" lon="5.67287">
        <ele>577</ele>
        <time>2021-08-05T15:05:19+02:00</time>
      </trkpt>
      <trkpt lat="44.89434" lon="5.67305">
        <ele>578</ele>
        <time>2021-08-05T15:06:33+02:00</time>
      </trkpt>
      <trkpt lat="44.89417" lon="5.67325">
        <ele>575</ele>
        <time>2021-08-05T15:06:57+02:00</time>
      </trkpt>
      <trkpt lat="44.89421" lon="5.67357">
        <ele>575</ele>
        <time>2021-08-05T15:07:17+02:00</time>
      </trkpt>
      <trkpt lat="44.89441" lon="5.67371">
        <ele>575</ele>
        <time>2021-08-05T15:07:40+02:00</time>
      </trkpt>
      <trkpt lat="44.89464" lon="5.67364">
        <ele>574</ele>
        <time>2021-08-05T15:08:03+02:00</time>
      </trkpt>
      <trkpt lat="44.89486" lon="5.67364">
        <ele>575</ele>
        <time>2021-08-05T15:08:25+02:00</time>
      </trkpt>
      <trkpt lat="44.8951" lon="5.6736">
        <ele>571</ele>
        <time>2021-08-05T15:08:46+02:00</time>
      </trkpt>
      <trkpt lat="44.89532" lon="5.67353">
        <ele>571</ele>
        <time>2021-08-05T15:09:09+02:00</time>
      </trkpt>
      <trkpt lat="44.89555" lon="5.67352">
        <ele>568</ele>
        <time>2021-08-05T15:09:31+02:00</time>
      </trkpt>
      <trkpt lat="44.89577" lon="5.67359">
        <ele>568</ele>
        <time>2021-08-05T15:10:00+02:00</time>
      </trkpt>
      <trkpt lat="44.896" lon="5.67362">
        <ele>563</ele>
        <time>2021-08-05T15:10:20+02:00</time>
      </trkpt>
      <trkpt lat="44.89623" lon="5.67362">
        <ele>564</ele>
        <time>2021-08-05T15:10:43+02:00</time>
      </trkpt>
      <trkpt lat="44.89641" lon="5.6735">
        <ele>502</ele>
        <time>2021-08-08T07:31:08+02:00</time>
      </trkpt>
      <trkpt lat="44.89658" lon="5.67358">
        <ele>502</ele>
        <time>2021-08-05T15:11:08+02:00</time>
      </trkpt>
      <trkpt lat="44.89671" lon="5.67385">
        <ele>498</ele>
        <time>2021-08-05T15:11:30+02:00</time>
      </trkpt>
      <trkpt lat="44.89685" lon="5.67403">
        <ele>495</ele>
        <time>2021-08-05T15:11:59+02:00</time>
      </trkpt>
      <trkpt lat="44.89706" lon="5.67404">
        <ele>554</ele>
        <time>2021-08-05T15:12:15+02:00</time>
      </trkpt>
      <trkpt lat="44.89726" lon="5.67389">
        <ele>548</ele>
        <time>2021-08-05T15:12:38+02:00</time>
      </trkpt>
      <trkpt lat="44.89746" lon="5.67373">
        <ele>546</ele>
        <time>2021-08-05T15:12:56+02:00</time>
      </trkpt>
      <trkpt lat="44.89769" lon="5.67372">
        <ele>546</ele>
        <time>2021-08-05T15:13:19+02:00</time>
      </trkpt>
      <trkpt lat="44.8979" lon="5.6736">
        <ele>549</ele>
        <time>2021-08-05T15:13:40+02:00</time>
      </trkpt>
      <trkpt lat="44.89813" lon="5.67354">
        <ele>548</ele>
        <time>2021-08-05T15:14:03+02:00</time>
      </trkpt>
      <trkpt lat="44.89836" lon="5.67349">
        <ele>544</ele>
        <time>2021-08-05T15:14:29+02:00</time>
      </trkpt>
      <trkpt lat="44.89857" lon="5.67338">
        <ele>545</ele>
        <time>2021-08-05T15:16:36+02:00</time>
      </trkpt>
      <trkpt lat="44.89875" lon="5.67317">
        <ele>546</ele>
        <time>2021-08-05T15:16:53+02:00</time>
      </trkpt>
      <trkpt lat="44.89896" lon="5.67303">
        <ele>550</ele>
        <time>2021-08-05T15:17:21+02:00</time>
      </trkpt>
      <trkpt lat="44.89917" lon="5.67287">
        <ele>551</ele>
        <time>2021-08-05T15:17:42+02:00</time>
      </trkpt>
      <trkpt lat="44.89938" lon="5.67276">
        <ele>552</ele>
        <time>2021-08-05T15:18:03+02:00</time>
      </trkpt>
      <trkpt lat="44.89959" lon="5.67262">
        <ele>558</ele>
        <time>2021-08-05T15:18:26+02:00</time>
      </trkpt>
      <trkpt lat="44.8998" lon="5.6725">
        <ele>564</ele>
        <time>2021-08-05T15:18:47+02:00</time>
      </trkpt>
      <trkpt lat="44.9" lon="5.67234">
        <ele>567</ele>
        <time>2021-08-05T15:19:13+02:00</time>
      </trkpt>
      <trkpt lat="44.90023" lon="5.67228">
        <ele>566</ele>
        <time>2021-08-05T15:19:36+02:00</time>
      </trkpt>
      <trkpt lat="44.90041" lon="5.67209">
        <ele>569</ele>
        <time>2021-08-05T15:19:56+02:00</time>
      </trkpt>
      <trkpt lat="44.90059" lon="5.67189">
        <ele>568</ele>
        <time>2021-08-05T15:20:13+02:00</time>
      </trkpt>
      <trkpt lat="44.90073" lon="5.67163">
        <ele>573</ele>
        <time>2021-08-05T15:20:48+02:00</time>
      </trkpt>
      <trkpt lat="44.90095" lon="5.67171">
        <ele>574</ele>
        <time>2021-08-05T15:21:12+02:00</time>
      </trkpt>
      <trkpt lat="44.90116" lon="5.67158">
        <ele>571</ele>
        <time>2021-08-05T15:21:33+02:00</time>
      </trkpt>
      <trkpt lat="44.90137" lon="5.67144">
        <ele>571</ele>
        <time>2021-08-05T15:21:52+02:00</time>
      </trkpt>
      <trkpt lat="44.90158" lon="5.6713">
        <ele>571</ele>
        <time>2021-08-05T15:22:12+02:00</time>
      </trkpt>
      <trkpt lat="44.90179" lon="5.67116">
        <ele>573</ele>
        <time>2021-08-05T15:22:31+02:00</time>
      </trkpt>
      <trkpt lat="44.90194" lon="5.67142">
        <ele>574</ele>
        <time>2021-08-05T15:24:33+02:00</time>
      </trkpt>
      <trkpt lat="44.90201" lon="5.67174">
        <ele>568</ele>
        <time>2021-08-05T15:25:33+02:00</time>
      </trkpt>
      <trkpt lat="44.90205" lon="5.67206">
        <ele>566</ele>
        <time>2021-08-05T15:25:40+02:00</time>
      </trkpt>
      <trkpt lat="44.90212" lon="5.67237">
        <ele>558</ele>
        <time>2021-08-05T15:26:17+02:00</time>
      </trkpt>
      <trkpt lat="44.90213" lon="5.67269">
        <ele>554</ele>
        <time>2021-08-05T15:26:38+02:00</time>
      </trkpt>
      <trkpt lat="44.90232" lon="5.67287">
        <ele>551</ele>
        <time>2021-08-05T15:26:53+02:00</time>
      </trkpt>
      <trkpt lat="44.90254" lon="5.67286">
        <ele>544</ele>
        <time>2021-08-05T15:27:13+02:00</time>
      </trkpt>
      <trkpt lat="44.90277" lon="5.67276">
        <ele>547</ele>
        <time>2021-08-05T15:27:30+02:00</time>
      </trkpt>
      <trkpt lat="44.90299" lon="5.67268">
        <ele>548</ele>
        <time>2021-08-05T15:27:47+02:00</time>
      </trkpt>
      <trkpt lat="44.90321" lon="5.6726">
        <ele>549</ele>
        <time>2021-08-05T15:28:03+02:00</time>
      </trkpt>
      <trkpt lat="44.90344" lon="5.6725">
        <ele>549</ele>
        <time>2021-08-05T15:28:18+02:00</time>
      </trkpt>
      <trkpt lat="44.90367" lon="5.67244">
        <ele>550</ele>
        <time>2021-08-05T15:28:36+02:00</time>
      </trkpt>
      <trkpt lat="44.90378" lon="5.67216">
        <ele>547</ele>
        <time>2021-08-05T15:29:02+02:00</time>
      </trkpt>
      <trkpt lat="44.90391" lon="5.67189">
        <ele>550</ele>
        <time>2021-08-05T15:29:25+02:00</time>
      </trkpt>
      <trkpt lat="44.90414" lon="5.67184">
        <ele>551</ele>
        <time>2021-08-05T15:30:00+02:00</time>
      </trkpt>
      <trkpt lat="44.90433" lon="5.672">
        <ele>545</ele>
        <time>2021-08-05T15:30:20+02:00</time>
      </trkpt>
      <trkpt lat="44.90455" lon="5.67207">
        <ele>546</ele>
        <time>2021-08-05T15:30:41+02:00</time>
      </trkpt>
      <trkpt lat="44.90479" lon="5.67203">
        <ele>547</ele>
        <time>2021-08-05T15:30:59+02:00</time>
      </trkpt>
      <trkpt lat="44.90502" lon="5.67201">
        <ele>548</ele>
        <time>2021-08-05T15:31:14+02:00</time>
      </trkpt>
      <trkpt lat="44.90524" lon="5.67192">
        <ele>547</ele>
        <time>2021-08-05T15:31:34+02:00</time>
      </trkpt>
      <trkpt lat="44.90547" lon="5.67185">
        <ele>547</ele>
        <time>2021-08-05T15:31:54+02:00</time>
      </trkpt>
      <trkpt lat="44.90569" lon="5.67177">
        <ele>546</ele>
        <time>2021-08-05T15:32:15+02:00</time>
      </trkpt>
      <trkpt lat="44.90591" lon="5.67166">
        <ele>544</ele>
        <time>2021-08-05T15:32:35+02:00</time>
      </trkpt>
      <trkpt lat="44.90612" lon="5.67153">
        <ele>543</ele>
        <time>2021-08-05T15:32:57+02:00</time>
      </trkpt>
      <trkpt lat="44.90636" lon="5.67151">
        <ele>545</ele>
        <time>2021-08-05T15:33:19+02:00</time>
      </trkpt>
      <trkpt lat="44.90658" lon="5.67153">
        <ele>547</ele>
        <time>2021-08-05T15:33:41+02:00</time>
      </trkpt>
      <trkpt lat="44.90681" lon="5.67158">
        <ele>547</ele>
        <time>2021-08-05T15:34:03+02:00</time>
      </trkpt>
      <trkpt lat="44.907" lon="5.67177">
        <ele>549</ele>
        <time>2021-08-05T15:39:40+02:00</time>
      </trkpt>
    </trkseg>
  </trk>
</gpx>